OTM weather

Ottumwa Regional Airport
Ottumwa, Iowa, United States

Public forecast

Using degrees Fahrenheit for public forecast. Weather courtesy of forecast.io.

METAR (pilot weather report)

Retrieved 2019/09/16 02:53 UTC (9 minutes ago):

KOTM 160253Z AUTO 04003KT 10SM CLR 22/21 A3001 RMK AO2 SLP156 T02220206 53010

TAF (pilot weather forecast)

Forecast is more than 12 hours old.

Retrieved 2019/09/15 00:34 UTC (1 day ago):

TAF KOTM 152332Z 1600/1624 29004KT P6SM SKC FM160200 VRB03KT P6SM SKC FM160800 VRB03KT 2SM BR SKC FM161500 13006KT P6SM FEW250